sensor_id;sensor_type;location;lat;lon;timestamp;temperature;humidity
21493;DHT22;10908;50.690;4.400;2022-11-20T00:01:17;5.00;90.10
21493;DHT22;10908;50.690;4.400;2022-11-20T00:03:43;5.10;89.80
21493;DHT22;10908;50.690;4.400;2022-11-20T00:06:15;5.10;89.40
21493;DHT22;10908;50.690;4.400;2022-11-20T00:08:41;5.20;89.30
21493;DHT22;10908;50.690;4.400;2022-11-20T00:13:38;5.30;89.00
21493;DHT22;10908;50.690;4.400;2022-11-20T00:16:06;5.30;88.60
21493;DHT22;10908;50.690;4.400;2022-11-20T00:18:35;5.40;88.50
21493;DHT22;10908;50.690;4.400;2022-11-20T00:21:03;5.40;88.10
21493;DHT22;10908;50.690;4.400;2022-11-20T00:23:29;5.60;88.00
21493;DHT22;10908;50.690;4.400;2022-11-20T00:25:55;5.50;87.60
21493;DHT22;10908;50.690;4.400;2022-11-20T00:28:21;5.60;87.60
21493;DHT22;10908;50.690;4.400;2022-11-20T00:30:46;5.50;87.30
21493;DHT22;10908;50.690;4.400;2022-11-20T00:33:12;5.50;87.40
21493;DHT22;10908;50.690;4.400;2022-11-20T00:35:38;5.60;87.30
21493;DHT22;10908;50.690;4.400;2022-11-20T00:38:04;5.70;87.10
21493;DHT22;10908;50.690;4.400;2022-11-20T00:40:29;5.70;87.00
21493;DHT22;10908;50.690;4.400;2022-11-20T00:42:55;5.80;86.80
21493;DHT22;10908;50.690;4.400;2022-11-20T00:45:20;5.60;86.90
21493;DHT22;10908;50.690;4.400;2022-11-20T00:47:46;5.40;87.40
21493;DHT22;10908;50.690;4.400;2022-11-20T00:50:12;5.50;87.80
21493;DHT22;10908;50.690;4.400;2022-11-20T00:52:37;5.60;88.00
21493;DHT22;10908;50.690;4.400;2022-11-20T00:55:03;5.70;87.90
21493;DHT22;10908;50.690;4.400;2022-11-20T00:57:29;5.60;87.90
21493;DHT22;10908;50.690;4.400;2022-11-20T00:59:55;5.50;87.80
21493;DHT22;10908;50.690;4.400;2022-11-20T01:02:21;5.50;88.00
21493;DHT22;10908;50.690;4.400;2022-11-20T01:04:46;5.50;88.20
21493;DHT22;10908;50.690;4.400;2022-11-20T01:07:12;5.50;88.40
21493;DHT22;10908;50.690;4.400;2022-11-20T01:09:37;5.50;88.50
21493;DHT22;10908;50.690;4.400;2022-11-20T01:12:04;5.50;88.60
21493;DHT22;10908;50.690;4.400;2022-11-20T01:14:29;5.40;88.70
21493;DHT22;10908;50.690;4.400;2022-11-20T01:16:55;5.60;88.70
21493;DHT22;10908;50.690;4.400;2022-11-20T01:19:22;5.60;88.70
21493;DHT22;10908;50.690;4.400;2022-11-20T01:21:50;5.70;88.70
21493;DHT22;10908;50.690;4.400;2022-11-20T01:24:18;5.60;88.40
21493;DHT22;10908;50.690;4.400;2022-11-20T01:26:46;5.70;88.30
21493;DHT22;10908;50.690;4.400;2022-11-20T01:29:22;5.50;88.40
21493;DHT22;10908;50.690;4.400;2022-11-20T01:31:47;5.60;88.50
21493;DHT22;10908;50.690;4.400;2022-11-20T01:34:15;5.60;88.60
21493;DHT22;10908;50.690;4.400;2022-11-20T01:36:42;5.50;88.90
21493;DHT22;10908;50.690;4.400;2022-11-20T01:39:26;5.50;88.90
21493;DHT22;10908;50.690;4.400;2022-11-20T01:41:54;5.60;89.10
21493;DHT22;10908;50.690;4.400;2022-11-20T01:44:57;5.50;89.30
21493;DHT22;10908;50.690;4.400;2022-11-20T01:47:24;5.50;89.30
21493;DHT22;10908;50.690;4.400;2022-11-20T01:49:59;5.40;89.50
21493;DHT22;10908;50.690;4.400;2022-11-20T01:52:51;5.70;89.40
21493;DHT22;10908;50.690;4.400;2022-11-20T01:55:23;5.60;89.30
21493;DHT22;10908;50.690;4.400;2022-11-20T01:57:51;5.50;89.30
21493;DHT22;10908;50.690;4.400;2022-11-20T02:00:19;5.50;89.30
21493;DHT22;10908;50.690;4.400;2022-11-20T02:02:53;5.50;89.20
21493;DHT22;10908;50.690;4.400;2022-11-20T02:05:22;5.40;89.20
21493;DHT22;10908;50.690;4.400;2022-11-20T02:07:48;5.50;89.20
21493;DHT22;10908;50.690;4.400;2022-11-20T02:10:15;5.40;89.00
21493;DHT22;10908;50.690;4.400;2022-11-20T02:12:41;5.40;89.00
21493;DHT22;10908;50.690;4.400;2022-11-20T02:15:25;5.40;88.90
21493;DHT22;10908;50.690;4.400;2022-11-20T02:17:51;5.50;88.90
21493;DHT22;10908;50.690;4.400;2022-11-20T02:20:16;5.40;88.80
21493;DHT22;10908;50.690;4.400;2022-11-20T02:22:51;5.50;88.80
21493;DHT22;10908;50.690;4.400;2022-11-20T02:25:20;5.60;88.80
21493;DHT22;10908;50.690;4.400;2022-11-20T02:27:46;5.60;88.30
21493;DHT22;10908;50.690;4.400;2022-11-20T02:30:12;5.50;88.10
21493;DHT22;10908;50.690;4.400;2022-11-20T02:32:38;5.60;87.90
21493;DHT22;10908;50.690;4.400;2022-11-20T02:37:59;5.50;87.50
21493;DHT22;10908;50.690;4.400;2022-11-20T02:40:26;5.40;87.50
21493;DHT22;10908;50.690;4.400;2022-11-20T02:42:56;5.40;87.30
21493;DHT22;10908;50.690;4.400;2022-11-20T02:45:22;5.40;87.40
21493;DHT22;10908;50.690;4.400;2022-11-20T02:47:49;5.40;87.40
21493;DHT22;10908;50.690;4.400;2022-11-20T02:50:15;5.40;87.50
21493;DHT22;10908;50.690;4.400;2022-11-20T02:52:40;5.40;87.30
21493;DHT22;10908;50.690;4.400;2022-11-20T02:55:06;5.40;87.30
21493;DHT22;10908;50.690;4.400;2022-11-20T02:57:32;5.40;87.10
21493;DHT22;10908;50.690;4.400;2022-11-20T02:59:57;5.40;87.20
21493;DHT22;10908;50.690;4.400;2022-11-20T03:02:23;5.50;87.30
21493;DHT22;10908;50.690;4.400;2022-11-20T03:04:49;5.40;86.80
21493;DHT22;10908;50.690;4.400;2022-11-20T03:07:14;5.40;86.50
21493;DHT22;10908;50.690;4.400;2022-11-20T03:09:40;5.40;86.30
21493;DHT22;10908;50.690;4.400;2022-11-20T03:12:05;5.40;86.20
21493;DHT22;10908;50.690;4.400;2022-11-20T03:14:31;5.30;86.10
21493;DHT22;10908;50.690;4.400;2022-11-20T03:16:57;5.30;86.30
21493;DHT22;10908;50.690;4.400;2022-11-20T03:19:23;5.30;86.50
21493;DHT22;10908;50.690;4.400;2022-11-20T03:21:49;5.30;86.50
21493;DHT22;10908;50.690;4.400;2022-11-20T03:24:15;5.30;86.60
21493;DHT22;10908;50.690;4.400;2022-11-20T03:26:41;5.40;86.50
21493;DHT22;10908;50.690;4.400;2022-11-20T03:29:07;5.50;86.10
21493;DHT22;10908;50.690;4.400;2022-11-20T03:31:38;5.40;86.00
21493;DHT22;10908;50.690;4.400;2022-11-20T03:34:09;5.30;86.20
21493;DHT22;10908;50.690;4.400;2022-11-20T03:36:40;5.30;86.30
21493;DHT22;10908;50.690;4.400;2022-11-20T03:39:06;5.40;86.40
21493;DHT22;10908;50.690;4.400;2022-11-20T03:41:36;5.40;86.20
21493;DHT22;10908;50.690;4.400;2022-11-20T03:44:06;5.30;86.10
21493;DHT22;10908;50.690;4.400;2022-11-20T03:46:32;5.20;86.10
21493;DHT22;10908;50.690;4.400;2022-11-20T03:48:57;5.30;86.00
21493;DHT22;10908;50.690;4.400;2022-11-20T03:51:25;5.20;86.00
21493;DHT22;10908;50.690;4.400;2022-11-20T03:53:53;5.30;86.10
21493;DHT22;10908;50.690;4.400;2022-11-20T03:56:22;5.30;86.10
21493;DHT22;10908;50.690;4.400;2022-11-20T03:58:48;5.30;86.20
21493;DHT22;10908;50.690;4.400;2022-11-20T04:01:17;5.40;86.30
21493;DHT22;10908;50.690;4.400;2022-11-20T04:03:43;5.40;86.00
21493;DHT22;10908;50.690;4.400;2022-11-20T04:06:10;5.40;86.10
21493;DHT22;10908;50.690;4.400;2022-11-20T04:08:36;5.50;86.10
21493;DHT22;10908;50.690;4.400;2022-11-20T04:11:13;5.60;85.80
21493;DHT22;10908;50.690;4.400;2022-11-20T04:13:39;5.50;85.90
21493;DHT22;10908;50.690;4.400;2022-11-20T04:16:06;5.50;86.10
21493;DHT22;10908;50.690;4.400;2022-11-20T04:18:32;5.50;86.30
21493;DHT22;10908;50.690;4.400;2022-11-20T04:20:59;5.60;86.30
21493;DHT22;10908;50.690;4.400;2022-11-20T04:23:25;5.50;86.20
21493;DHT22;10908;50.690;4.400;2022-11-20T04:25:51;5.50;86.50
21493;DHT22;10908;50.690;4.400;2022-11-20T04:28:16;5.30;86.90
21493;DHT22;10908;50.690;4.400;2022-11-20T04:30:42;5.30;87.30
21493;DHT22;10908;50.690;4.400;2022-11-20T04:33:08;5.30;87.60
21493;DHT22;10908;50.690;4.400;2022-11-20T04:35:35;5.30;87.80
21493;DHT22;10908;50.690;4.400;2022-11-20T04:38:01;5.20;88.10
21493;DHT22;10908;50.690;4.400;2022-11-20T04:40:27;5.10;88.50
21493;DHT22;10908;50.690;4.400;2022-11-20T04:42:54;5.10;88.80
21493;DHT22;10908;50.690;4.400;2022-11-20T04:45:19;5.00;89.10
21493;DHT22;10908;50.690;4.400;2022-11-20T04:47:45;5.00;89.30
21493;DHT22;10908;50.690;4.400;2022-11-20T04:50:11;5.00;89.40
21493;DHT22;10908;50.690;4.400;2022-11-20T04:52:36;5.10;89.60
21493;DHT22;10908;50.690;4.400;2022-11-20T04:55:02;5.20;89.70
21493;DHT22;10908;50.690;4.400;2022-11-20T04:57:28;5.30;89.70
21493;DHT22;10908;50.690;4.400;2022-11-20T04:59:53;5.50;89.40
21493;DHT22;10908;50.690;4.400;2022-11-20T05:02:19;5.40;89.20
21493;DHT22;10908;50.690;4.400;2022-11-20T05:04:45;5.20;89.20
21493;DHT22;10908;50.690;4.400;2022-11-20T05:07:10;5.20;89.30
21493;DHT22;10908;50.690;4.400;2022-11-20T05:09:36;5.20;89.50
21493;DHT22;10908;50.690;4.400;2022-11-20T05:12:02;5.20;89.70
21493;DHT22;10908;50.690;4.400;2022-11-20T05:14:27;5.30;89.80
21493;DHT22;10908;50.690;4.400;2022-11-20T05:16:53;5.40;89.80
21493;DHT22;10908;50.690;4.400;2022-11-20T05:19:18;5.40;89.70
21493;DHT22;10908;50.690;4.400;2022-11-20T05:21:44;5.30;89.80
21493;DHT22;10908;50.690;4.400;2022-11-20T05:24:10;5.30;89.90
21493;DHT22;10908;50.690;4.400;2022-11-20T05:26:35;5.40;89.80
21493;DHT22;10908;50.690;4.400;2022-11-20T05:29:01;5.30;89.80
21493;DHT22;10908;50.690;4.400;2022-11-20T05:31:27;5.40;89.90
21493;DHT22;10908;50.690;4.400;2022-11-20T05:33:53;5.50;89.90
21493;DHT22;10908;50.690;4.400;2022-11-20T05:36:19;5.40;89.80
21493;DHT22;10908;50.690;4.400;2022-11-20T05:38:45;5.30;89.90
21493;DHT22;10908;50.690;4.400;2022-11-20T05:41:16;5.40;90.00
21493;DHT22;10908;50.690;4.400;2022-11-20T05:43:45;5.60;89.90
21493;DHT22;10908;50.690;4.400;2022-11-20T05:46:13;5.60;89.80
21493;DHT22;10908;50.690;4.400;2022-11-20T05:48:40;5.70;89.40
21493;DHT22;10908;50.690;4.400;2022-11-20T05:51:07;5.60;89.40
21493;DHT22;10908;50.690;4.400;2022-11-20T05:53:34;5.70;89.50
21493;DHT22;10908;50.690;4.400;2022-11-20T05:58:28;5.80;89.30
21493;DHT22;10908;50.690;4.400;2022-11-20T06:00:54;5.60;89.30
21493;DHT22;10908;50.690;4.400;2022-11-20T06:03:19;5.60;89.30
21493;DHT22;10908;50.690;4.400;2022-11-20T06:05:45;5.70;89.40
21493;DHT22;10908;50.690;4.400;2022-11-20T06:08:11;5.70;89.50
21493;DHT22;10908;50.690;4.400;2022-11-20T06:10:36;5.60;89.60
21493;DHT22;10908;50.690;4.400;2022-11-20T06:13:02;5.80;89.60
21493;DHT22;10908;50.690;4.400;2022-11-20T06:15:28;5.60;89.60
21493;DHT22;10908;50.690;4.400;2022-11-20T06:17:54;5.50;89.80
21493;DHT22;10908;50.690;4.400;2022-11-20T06:20:21;5.60;89.80
21493;DHT22;10908;50.690;4.400;2022-11-20T06:22:47;5.60;89.90
21493;DHT22;10908;50.690;4.400;2022-11-20T06:25:13;5.80;89.90
21493;DHT22;10908;50.690;4.400;2022-11-20T06:27:39;5.80;89.70
21493;DHT22;10908;50.690;4.400;2022-11-20T06:30:05;5.70;89.70
21493;DHT22;10908;50.690;4.400;2022-11-20T06:32:31;5.80;89.70
21493;DHT22;10908;50.690;4.400;2022-11-20T06:34:57;5.80;89.60
21493;DHT22;10908;50.690;4.400;2022-11-20T06:37:23;5.90;89.40
21493;DHT22;10908;50.690;4.400;2022-11-20T06:39:49;5.90;89.30
21493;DHT22;10908;50.690;4.400;2022-11-20T06:42:14;5.90;89.00
21493;DHT22;10908;50.690;4.400;2022-11-20T06:44:40;5.90;88.80
21493;DHT22;10908;50.690;4.400;2022-11-20T06:47:05;5.90;88.90
21493;DHT22;10908;50.690;4.400;2022-11-20T06:49:31;5.80;89.00
21493;DHT22;10908;50.690;4.400;2022-11-20T06:51:57;5.80;89.20
21493;DHT22;10908;50.690;4.400;2022-11-20T06:54:22;5.90;89.20
21493;DHT22;10908;50.690;4.400;2022-11-20T06:56:48;5.90;89.20
21493;DHT22;10908;50.690;4.400;2022-11-20T06:59:14;5.80;89.20
21493;DHT22;10908;50.690;4.400;2022-11-20T07:01:40;5.80;89.40
21493;DHT22;10908;50.690;4.400;2022-11-20T07:04:06;5.80;89.60
21493;DHT22;10908;50.690;4.400;2022-11-20T07:06:31;5.90;89.70
21493;DHT22;10908;50.690;4.400;2022-11-20T07:08:57;5.90;89.70
21493;DHT22;10908;50.690;4.400;2022-11-20T07:11:23;6.00;89.60
21493;DHT22;10908;50.690;4.400;2022-11-20T07:13:49;5.90;89.60
21493;DHT22;10908;50.690;4.400;2022-11-20T07:16:15;5.90;89.70
21493;DHT22;10908;50.690;4.400;2022-11-20T07:18:40;5.90;89.90
21493;DHT22;10908;50.690;4.400;2022-11-20T07:21:08;5.80;90.00
21493;DHT22;10908;50.690;4.400;2022-11-20T07:23:34;5.90;90.10
21493;DHT22;10908;50.690;4.400;2022-11-20T07:26:08;5.90;90.20
21493;DHT22;10908;50.690;4.400;2022-11-20T07:28:35;6.10;90.40
21493;DHT22;10908;50.690;4.400;2022-11-20T07:31:01;6.30;90.30
21493;DHT22;10908;50.690;4.400;2022-11-20T07:33:26;6.20;90.20
21493;DHT22;10908;50.690;4.400;2022-11-20T07:35:52;6.20;90.20
21493;DHT22;10908;50.690;4.400;2022-11-20T07:38:18;6.20;90.20
21493;DHT22;10908;50.690;4.400;2022-11-20T07:40:43;6.20;90.30
21493;DHT22;10908;50.690;4.400;2022-11-20T07:43:09;6.30;90.40
21493;DHT22;10908;50.690;4.400;2022-11-20T07:45:35;6.30;90.60
21493;DHT22;10908;50.690;4.400;2022-11-20T07:48:00;6.20;90.60
21493;DHT22;10908;50.690;4.400;2022-11-20T07:50:26;6.30;90.70
21493;DHT22;10908;50.690;4.400;2022-11-20T07:52:51;6.30;90.90
21493;DHT22;10908;50.690;4.400;2022-11-20T07:55:17;6.30;91.00
21493;DHT22;10908;50.690;4.400;2022-11-20T07:57:43;6.40;91.10
21493;DHT22;10908;50.690;4.400;2022-11-20T08:00:10;6.40;91.20
21493;DHT22;10908;50.690;4.400;2022-11-20T08:02:40;6.40;91.20
21493;DHT22;10908;50.690;4.400;2022-11-20T08:05:08;6.60;91.10
21493;DHT22;10908;50.690;4.400;2022-11-20T08:07:42;6.60;91.20
21493;DHT22;10908;50.690;4.400;2022-11-20T08:10:09;6.60;91.10
21493;DHT22;10908;50.690;4.400;2022-11-20T08:12:35;6.60;91.20
21493;DHT22;10908;50.690;4.400;2022-11-20T08:15:20;6.60;91.20
21493;DHT22;10908;50.690;4.400;2022-11-20T08:17:45;6.70;91.20
21493;DHT22;10908;50.690;4.400;2022-11-20T08:20:11;6.70;91.40
21493;DHT22;10908;50.690;4.400;2022-11-20T08:22:37;6.80;91.40
21493;DHT22;10908;50.690;4.400;2022-11-20T08:25:03;6.80;91.50
21493;DHT22;10908;50.690;4.400;2022-11-20T08:27:28;6.80;91.50
21493;DHT22;10908;50.690;4.400;2022-11-20T08:29:54;6.90;91.50
21493;DHT22;10908;50.690;4.400;2022-11-20T08:32:19;6.90;91.60
21493;DHT22;10908;50.690;4.400;2022-11-20T08:34:45;7.10;91.50
21493;DHT22;10908;50.690;4.400;2022-11-20T08:37:11;7.00;91.60
21493;DHT22;10908;50.690;4.400;2022-11-20T08:39:37;7.10;91.60
21493;DHT22;10908;50.690;4.400;2022-11-20T08:42:07;7.20;91.50
21493;DHT22;10908;50.690;4.400;2022-11-20T08:44:32;7.30;91.40
21493;DHT22;10908;50.690;4.400;2022-11-20T08:46:58;7.30;91.30
21493;DHT22;10908;50.690;4.400;2022-11-20T08:49:24;7.40;91.20
21493;DHT22;10908;50.690;4.400;2022-11-20T08:51:49;7.40;91.20
21493;DHT22;10908;50.690;4.400;2022-11-20T08:54:18;7.50;91.10
21493;DHT22;10908;50.690;4.400;2022-11-20T08:56:47;7.60;91.00
21493;DHT22;10908;50.690;4.400;2022-11-20T08:59:12;7.50;90.90
21493;DHT22;10908;50.690;4.400;2022-11-20T09:01:38;7.60;90.90
21493;DHT22;10908;50.690;4.400;2022-11-20T09:04:04;7.60;90.80
21493;DHT22;10908;50.690;4.400;2022-11-20T09:06:30;7.70;90.80
21493;DHT22;10908;50.690;4.400;2022-11-20T09:08:56;7.70;90.70
21493;DHT22;10908;50.690;4.400;2022-11-20T09:11:22;7.70;90.60
21493;DHT22;10908;50.690;4.400;2022-11-20T09:13:48;7.80;90.70
21493;DHT22;10908;50.690;4.400;2022-11-20T09:16:15;7.80;90.70
21493;DHT22;10908;50.690;4.400;2022-11-20T09:18:41;7.80;90.70
21493;DHT22;10908;50.690;4.400;2022-11-20T09:21:10;7.80;90.60
21493;DHT22;10908;50.690;4.400;2022-11-20T09:23:37;7.90;90.60
21493;DHT22;10908;50.690;4.400;2022-11-20T09:26:11;7.80;90.60
21493;DHT22;10908;50.690;4.400;2022-11-20T09:28:38;7.90;90.40
21493;DHT22;10908;50.690;4.400;2022-11-20T09:31:08;7.90;90.30
21493;DHT22;10908;50.690;4.400;2022-11-20T09:33:35;7.80;90.10
21493;DHT22;10908;50.690;4.400;2022-11-20T09:36:01;7.80;90.10
21493;DHT22;10908;50.690;4.400;2022-11-20T09:38:27;7.90;90.00
21493;DHT22;10908;50.690;4.400;2022-11-20T09:40:57;8.00;89.90
21493;DHT22;10908;50.690;4.400;2022-11-20T09:46:17;7.90;89.60
21493;DHT22;10908;50.690;4.400;2022-11-20T09:51:58;8.10;89.10
21493;DHT22;10908;50.690;4.400;2022-11-20T09:54:36;8.10;89.00
21493;DHT22;10908;50.690;4.400;2022-11-20T09:57:08;8.10;88.70
21493;DHT22;10908;50.690;4.400;2022-11-20T09:59:44;8.10;88.60
21493;DHT22;10908;50.690;4.400;2022-11-20T10:07:52;8.10;88.30
21493;DHT22;10908;50.690;4.400;2022-11-20T10:10:31;8.20;88.20
21493;DHT22;10908;50.690;4.400;2022-11-20T10:13:02;8.30;87.80
21493;DHT22;10908;50.690;4.400;2022-11-20T10:18:26;8.30;87.10
21493;DHT22;10908;50.690;4.400;2022-11-20T10:26:17;8.30;86.90
21493;DHT22;10908;50.690;4.400;2022-11-20T10:29:12;8.40;87.00
21493;DHT22;10908;50.690;4.400;2022-11-20T10:32:00;8.40;86.90
21493;DHT22;10908;50.690;4.400;2022-11-20T10:35:01;8.50;86.50
21493;DHT22;10908;50.690;4.400;2022-11-20T10:37:31;8.60;86.60
21493;DHT22;10908;50.690;4.400;2022-11-20T10:40:09;8.60;85.90
21493;DHT22;10908;50.690;4.400;2022-11-20T10:42:57;8.60;85.60
21493;DHT22;10908;50.690;4.400;2022-11-20T10:47:51;8.60;85.60
21493;DHT22;10908;50.690;4.400;2022-11-20T10:50:20;8.80;85.60
21493;DHT22;10908;50.690;4.400;2022-11-20T10:53:08;8.80;85.20
21493;DHT22;10908;50.690;4.400;2022-11-20T10:55:46;8.80;84.40
21493;DHT22;10908;50.690;4.400;2022-11-20T10:58:24;8.70;84.10
21493;DHT22;10908;50.690;4.400;2022-11-20T11:01:04;8.80;84.20
21493;DHT22;10908;50.690;4.400;2022-11-20T11:03:31;8.80;84.50
21493;DHT22;10908;50.690;4.400;2022-11-20T11:09:28;8.80;84.50
21493;DHT22;10908;50.690;4.400;2022-11-20T11:11:50;8.90;84.30
21493;DHT22;10908;50.690;4.400;2022-11-20T11:14:16;8.90;83.90
21493;DHT22;10908;50.690;4.400;2022-11-20T11:16:56;8.90;83.80
21493;DHT22;10908;50.690;4.400;2022-11-20T11:19:22;8.90;83.80
21493;DHT22;10908;50.690;4.400;2022-11-20T11:21:57;8.80;83.50
21493;DHT22;10908;50.690;4.400;2022-11-20T11:24:24;8.80;83.60
21493;DHT22;10908;50.690;4.400;2022-11-20T11:26:58;8.80;83.90
21493;DHT22;10908;50.690;4.400;2022-11-20T11:29:25;8.70;84.40
21493;DHT22;10908;50.690;4.400;2022-11-20T11:32:12;8.60;84.50
21493;DHT22;10908;50.690;4.400;2022-11-20T11:34:38;8.60;85.10
21493;DHT22;10908;50.690;4.400;2022-11-20T11:37:04;8.50;85.30
21493;DHT22;10908;50.690;4.400;2022-11-20T11:39:32;8.50;85.60
21493;DHT22;10908;50.690;4.400;2022-11-20T11:42:00;8.50;85.70
21493;DHT22;10908;50.690;4.400;2022-11-20T11:44:33;8.60;86.00
21493;DHT22;10908;50.690;4.400;2022-11-20T11:47:26;8.50;85.80
21493;DHT22;10908;50.690;4.400;2022-11-20T11:50:24;8.50;85.80
21493;DHT22;10908;50.690;4.400;2022-11-20T11:52:53;8.50;86.00
21493;DHT22;10908;50.690;4.400;2022-11-20T11:58:43;8.40;85.90
21493;DHT22;10908;50.690;4.400;2022-11-20T12:00:58;8.30;85.90
21493;DHT22;10908;50.690;4.400;2022-11-20T12:03:39;8.40;85.90
21493;DHT22;10908;50.690;4.400;2022-11-20T12:06:14;8.40;86.00
21493;DHT22;10908;50.690;4.400;2022-11-20T12:08:56;8.40;85.90
21493;DHT22;10908;50.690;4.400;2022-11-20T12:14:20;8.50;86.00
21493;DHT22;10908;50.690;4.400;2022-11-20T12:16:50;8.40;86.00
21493;DHT22;10908;50.690;4.400;2022-11-20T12:19:16;8.40;86.20
21493;DHT22;10908;50.690;4.400;2022-11-20T12:30:14;8.40;86.60
21493;DHT22;10908;50.690;4.400;2022-11-20T12:43:42;8.30;88.10
21493;DHT22;10908;50.690;4.400;2022-11-20T12:46:57;8.30;88.30
21493;DHT22;10908;50.690;4.400;2022-11-20T12:54:46;8.30;88.20
21493;DHT22;10908;50.690;4.400;2022-11-20T12:57:24;8.30;88.60
21493;DHT22;10908;50.690;4.400;2022-11-20T13:00:14;8.40;88.80
21493;DHT22;10908;50.690;4.400;2022-11-20T13:05:37;8.30;89.40
21493;DHT22;10908;50.690;4.400;2022-11-20T13:08:11;8.30;89.60
21493;DHT22;10908;50.690;4.400;2022-11-20T13:10:50;8.30;89.90
21493;DHT22;10908;50.690;4.400;2022-11-20T13:13:22;8.10;90.20
21493;DHT22;10908;50.690;4.400;2022-11-20T13:18:37;8.20;90.70
21493;DHT22;10908;50.690;4.400;2022-11-20T13:21:34;8.10;91.10
21493;DHT22;10908;50.690;4.400;2022-11-20T13:26:44;8.30;91.10
21493;DHT22;10908;50.690;4.400;2022-11-20T13:29:18;8.20;91.20
21493;DHT22;10908;50.690;4.400;2022-11-20T13:31:45;8.20;91.20
21493;DHT22;10908;50.690;4.400;2022-11-20T13:34:23;8.20;91.10
21493;DHT22;10908;50.690;4.400;2022-11-20T13:36:59;8.20;91.10
21493;DHT22;10908;50.690;4.400;2022-11-20T13:39:36;8.10;91.10
21493;DHT22;10908;50.690;4.400;2022-11-20T13:44:44;8.10;91.20
21493;DHT22;10908;50.690;4.400;2022-11-20T13:47:26;8.10;91.20
21493;DHT22;10908;50.690;4.400;2022-11-20T13:49:53;8.10;91.30
21493;DHT22;10908;50.690;4.400;2022-11-20T14:00:19;8.30;91.40
21493;DHT22;10908;50.690;4.400;2022-11-20T14:05:35;8.30;91.30
21493;DHT22;10908;50.690;4.400;2022-11-20T14:08:03;8.30;91.30
21493;DHT22;10908;50.690;4.400;2022-11-20T14:10:31;8.20;91.20
21493;DHT22;10908;50.690;4.400;2022-11-20T14:12:56;8.30;91.20
21493;DHT22;10908;50.690;4.400;2022-11-20T14:15:33;8.20;91.00
21493;DHT22;10908;50.690;4.400;2022-11-20T14:18:14;8.20;91.00
21493;DHT22;10908;50.690;4.400;2022-11-20T14:20:42;8.20;91.00
21493;DHT22;10908;50.690;4.400;2022-11-20T14:23:09;8.10;91.00
21493;DHT22;10908;50.690;4.400;2022-11-20T14:25:36;8.20;91.00
21493;DHT22;10908;50.690;4.400;2022-11-20T14:28:03;8.10;91.10
21493;DHT22;10908;50.690;4.400;2022-11-20T14:30:45;8.20;91.20
21493;DHT22;10908;50.690;4.400;2022-11-20T14:33:13;8.10;91.10
21493;DHT22;10908;50.690;4.400;2022-11-20T14:35:49;8.20;91.10
21493;DHT22;10908;50.690;4.400;2022-11-20T14:38:20;8.20;90.90
21493;DHT22;10908;50.690;4.400;2022-11-20T14:40:46;8.20;91.10
21493;DHT22;10908;50.690;4.400;2022-11-20T14:43:30;8.10;91.20
21493;DHT22;10908;50.690;4.400;2022-11-20T14:45:59;8.10;91.20
21493;DHT22;10908;50.690;4.400;2022-11-20T14:48:40;8.20;91.30
21493;DHT22;10908;50.690;4.400;2022-11-20T14:51:10;8.30;91.30
21493;DHT22;10908;50.690;4.400;2022-11-20T14:53:36;8.30;91.10
21493;DHT22;10908;50.690;4.400;2022-11-20T14:56:02;8.30;90.90
21493;DHT22;10908;50.690;4.400;2022-11-20T14:58:33;8.30;90.80
21493;DHT22;10908;50.690;4.400;2022-11-20T15:01:01;8.30;90.80
21493;DHT22;10908;50.690;4.400;2022-11-20T15:03:36;8.30;90.90
21493;DHT22;10908;50.690;4.400;2022-11-20T15:06:03;8.30;90.80
21493;DHT22;10908;50.690;4.400;2022-11-20T15:08:29;8.30;90.70
21493;DHT22;10908;50.690;4.400;2022-11-20T15:10:55;8.40;90.60
21493;DHT22;10908;50.690;4.400;2022-11-20T15:13:36;8.40;90.50
21493;DHT22;10908;50.690;4.400;2022-11-20T15:16:08;8.50;90.40
21493;DHT22;10908;50.690;4.400;2022-11-20T15:18:40;8.50;90.40
21493;DHT22;10908;50.690;4.400;2022-11-20T15:21:28;8.40;90.40
21493;DHT22;10908;50.690;4.400;2022-11-20T15:23:54;8.40;90.50
21493;DHT22;10908;50.690;4.400;2022-11-20T15:26:24;8.50;90.40
21493;DHT22;10908;50.690;4.400;2022-11-20T15:28:51;8.50;90.40
21493;DHT22;10908;50.690;4.400;2022-11-20T15:31:20;8.60;90.40
21493;DHT22;10908;50.690;4.400;2022-11-20T15:33:46;8.50;90.40
21493;DHT22;10908;50.690;4.400;2022-11-20T15:36:12;8.60;90.40
21493;DHT22;10908;50.690;4.400;2022-11-20T15:38:38;8.60;90.40
21493;DHT22;10908;50.690;4.400;2022-11-20T15:41:03;8.70;90.30
21493;DHT22;10908;50.690;4.400;2022-11-20T15:56:14;8.60;90.20
21493;DHT22;10908;50.690;4.400;2022-11-20T15:58:41;8.70;89.70
21493;DHT22;10908;50.690;4.400;2022-11-20T16:01:11;8.70;89.90
21493;DHT22;10908;50.690;4.400;2022-11-20T16:03:37;8.60;90.10
21493;DHT22;10908;50.690;4.400;2022-11-20T16:06:03;8.70;90.20
21493;DHT22;10908;50.690;4.400;2022-11-20T16:08:29;8.70;90.10
21493;DHT22;10908;50.690;4.400;2022-11-20T16:10:55;8.80;90.00
21493;DHT22;10908;50.690;4.400;2022-11-20T16:13:20;8.70;90.00
21493;DHT22;10908;50.690;4.400;2022-11-20T16:16:07;8.80;90.00
21493;DHT22;10908;50.690;4.400;2022-11-20T16:18:35;8.80;90.10
21493;DHT22;10908;50.690;4.400;2022-11-20T16:21:01;8.70;89.90
21493;DHT22;10908;50.690;4.400;2022-11-20T16:23:27;8.60;90.00
21493;DHT22;10908;50.690;4.400;2022-11-20T16:25:52;8.60;90.00
21493;DHT22;10908;50.690;4.400;2022-11-20T16:28:18;8.70;90.10
21493;DHT22;10908;50.690;4.400;2022-11-20T16:30:45;8.70;90.10
21493;DHT22;10908;50.690;4.400;2022-11-20T16:33:15;8.70;90.00
21493;DHT22;10908;50.690;4.400;2022-11-20T16:35:42;8.70;89.90
21493;DHT22;10908;50.690;4.400;2022-11-20T16:38:08;8.70;89.80
21493;DHT22;10908;50.690;4.400;2022-11-20T16:40:34;8.70;89.70
21493;DHT22;10908;50.690;4.400;2022-11-20T16:43:08;8.60;89.60
21493;DHT22;10908;50.690;4.400;2022-11-20T16:45:34;8.50;89.50
21493;DHT22;10908;50.690;4.400;2022-11-20T16:48:00;8.50;89.50
21493;DHT22;10908;50.690;4.400;2022-11-20T16:50:25;8.50;89.30
21493;DHT22;10908;50.690;4.400;2022-11-20T16:52:51;8.40;89.30
21493;DHT22;10908;50.690;4.400;2022-11-20T16:55:16;8.40;89.40
21493;DHT22;10908;50.690;4.400;2022-11-20T16:57:42;8.40;89.30
21493;DHT22;10908;50.690;4.400;2022-11-20T17:00:08;8.40;89.30
21493;DHT22;10908;50.690;4.400;2022-11-20T17:02:34;8.30;89.20
21493;DHT22;10908;50.690;4.400;2022-11-20T17:04:59;8.30;89.20
21493;DHT22;10908;50.690;4.400;2022-11-20T17:07:25;8.30;89.20
21493;DHT22;10908;50.690;4.400;2022-11-20T17:09:50;8.40;89.00
21493;DHT22;10908;50.690;4.400;2022-11-20T17:12:16;8.40;88.80
21493;DHT22;10908;50.690;4.400;2022-11-20T17:14:42;8.30;88.80
21493;DHT22;10908;50.690;4.400;2022-11-20T17:17:07;8.30;88.90
21493;DHT22;10908;50.690;4.400;2022-11-20T17:19:33;8.40;88.90
21493;DHT22;10908;50.690;4.400;2022-11-20T17:21:59;8.30;88.90
21493;DHT22;10908;50.690;4.400;2022-11-20T17:24:25;8.30;89.00
21493;DHT22;10908;50.690;4.400;2022-11-20T17:26:50;8.40;89.40
21493;DHT22;10908;50.690;4.400;2022-11-20T17:29:17;8.30;89.40
21493;DHT22;10908;50.690;4.400;2022-11-20T17:31:45;8.30;89.10
21493;DHT22;10908;50.690;4.400;2022-11-20T17:34:14;8.20;88.90